Phoenix, AZ (85062)

2:07 PM MST on March 23, 2017 (GMT -0700)
Deer Valley | | Change Station

Elev 1478 ft 33.45 °N, 112.07 °W | Updated 6 seconds ago

Mostly Cloudy
Mostly Cloudy
67.1 °F
Feels Like 67.1 °F
N
4.5
Wind Variable Wind from South
Gusts 7.4 mph

Today
High -- | Low -- °F
--% Chance of Precip.
Yesterday
High -- | Low -- °F
Precip. -- in
Pressure 29.94 in
Visibility 10.0 miles
Clouds Mostly Cloudy 7000 ft
Mostly Cloudy 10000 ft
Dew Point 39 °F
Humidity 36%
Rainfall 0.07 in
Snow Depth Not available.
6:27 AM 6:42 PM
Waning Crescent, 20% visible
METAR KPHX 232051Z 28016G23KT 10SM BKN070 BKN100 21/03 A2997 RMK AO2 SLP139 T02110033 58000
Pressure 29.94 in
Visibility 10.0 miles
Clouds Mostly Cloudy 7000 ft
Mostly Cloudy 10000 ft
Dew Point 39 °F
Humidity 36%
Rainfall 0.07 in
Snow Depth Not available.
6:27 AM 6:42 PM
Waning Crescent, 20% visible
METAR KPHX 232051Z 28016G23KT 10SM BKN070 BKN100 21/03 A2997 RMK AO2 SLP139 T02110033 58000

Get Severe Weather Alerts

Thanks for signing up!

Be on the lookout for a verification email in your inbox.

You'll start receiving the daily forecast at 8 AM.

×

10-Day Weather Forecast

Almanac

Astronomy

Mar. 23, 2017 Rise Set
Actual Time
Civil Twilight
Nautical Twilight
Astronomical Twilight
Moon
Length of Visible Light
Length of Day
Tomorrow will be .
, % of the Moon is Illuminated

Today's Extremes

State Highs State Lows

Community

WunderPhotos

Upload Photos

1,962,540 photos uploaded!

WunderBlog® & News

Nearby

Air Quality

  Air Quality AQ Index Pollutant
Not available.

Snow Depth

Station Depth Elevation

Earthquake Activity

City Distance Mag. Time & Date
Minimum magnitude displayed is 2.5.

Earthquake Activity

City Distance Mag. Time & Date
Minimum magnitude displayed is 2.5.

Coastal Water Temperatures

Place Temperature

Stations

Nearby Weather Stations

Station Location Temp. Windchill Dew Point Humidity Wind Precip. Elev Updated Type
                   

Watches & Warnings

There are currently no watches in effect.